createdAt,value
2018-08-06T00:01:59.368Z,1.67
2018-08-06T00:04:25.315Z,1.70
2018-08-06T00:06:52.033Z,1.70
2018-08-06T00:09:17.993Z,1.83
2018-08-06T00:11:43.974Z,1.83
2018-08-06T00:14:09.917Z,1.50
2018-08-06T00:16:35.899Z,2.00
2018-08-06T00:19:01.926Z,1.70
2018-08-06T00:21:27.899Z,1.80
2018-08-06T00:23:53.847Z,1.57
2018-08-06T00:26:19.806Z,1.47
2018-08-06T00:28:45.769Z,1.70
2018-08-06T00:31:11.729Z,1.63
2018-08-06T00:33:37.714Z,1.60
2018-08-06T00:36:04.405Z,1.80
2018-08-06T00:38:30.389Z,1.80
2018-08-06T00:40:56.349Z,1.63
2018-08-06T00:43:22.353Z,1.30
2018-08-06T00:45:48.318Z,1.60
2018-08-06T00:48:15.019Z,1.40
2018-08-06T00:50:41.016Z,1.40
2018-08-06T00:53:06.981Z,1.67
2018-08-06T00:55:32.962Z,1.50
2018-08-06T00:57:58.908Z,1.60
2018-08-06T01:00:24.912Z,1.70
2018-08-06T01:02:50.874Z,1.70
2018-08-06T01:05:16.876Z,1.50
2018-08-06T01:07:42.831Z,1.80
2018-08-06T01:10:08.787Z,2.03
2018-08-06T01:12:35.507Z,1.77
2018-08-06T01:15:01.454Z,1.67
2018-08-06T01:17:28.168Z,1.70
2018-08-06T01:19:54.151Z,1.80
2018-08-06T01:22:20.174Z,1.67
2018-08-06T01:24:46.124Z,1.90
2018-08-06T01:27:12.100Z,1.80
2018-08-06T01:29:38.043Z,1.60
2018-08-06T01:32:04.034Z,2.10
2018-08-06T01:34:29.995Z,1.70
2018-08-06T01:36:55.954Z,1.80
2018-08-06T01:39:21.932Z,1.83
2018-08-06T01:41:47.887Z,1.93
2018-08-06T01:44:13.886Z,1.70
2018-08-06T01:46:39.842Z,1.90
2018-08-06T01:49:05.841Z,1.83
2018-08-06T01:51:31.868Z,2.10
2018-08-06T01:53:57.826Z,1.87
2018-08-06T01:56:24.549Z,2.10
2018-08-06T01:58:50.502Z,2.30
2018-08-06T02:01:17.231Z,1.93
2018-08-06T02:03:43.928Z,2.33
2018-08-06T02:06:09.908Z,2.20
2018-08-06T02:08:36.602Z,2.10
2018-08-06T02:11:02.557Z,1.73
2018-08-06T02:13:29.281Z,1.67
2018-08-06T02:15:55.267Z,1.97
2018-08-06T02:18:21.226Z,1.77
2018-08-06T02:20:47.176Z,2.10
2018-08-06T02:23:13.184Z,2.07
2018-08-06T02:25:39.886Z,1.97
2018-08-06T02:28:05.900Z,2.20
2018-08-06T02:30:31.869Z,2.77
2018-08-06T02:32:58.606Z,2.40
2018-08-06T02:35:25.321Z,2.60
2018-08-06T02:37:51.292Z,2.13
2018-08-06T02:40:17.346Z,2.40
2018-08-06T02:42:43.329Z,2.47
2018-08-06T02:45:10.058Z,2.70
2018-08-06T02:47:36.000Z,3.17
2018-08-06T02:50:02.720Z,3.00
2018-08-06T02:52:29.535Z,2.80
2018-08-06T02:54:55.542Z,2.30
2018-08-06T02:57:21.509Z,2.73
2018-08-06T02:59:47.466Z,2.90
2018-08-06T03:02:13.429Z,3.00
2018-08-06T03:04:39.386Z,2.70
2018-08-06T03:07:06.122Z,2.90
2018-08-06T03:09:32.076Z,2.87
2018-08-06T03:11:58.053Z,2.90
2018-08-06T03:14:23.991Z,2.33
2018-08-06T03:16:50.776Z,2.67
2018-08-06T03:19:16.737Z,2.70
2018-08-06T03:21:42.721Z,2.90
2018-08-06T03:24:08.697Z,3.10
2018-08-06T03:26:34.633Z,3.33
2018-08-06T03:29:01.349Z,3.20
2018-08-06T03:31:27.286Z,2.93
2018-08-06T03:33:54.012Z,2.83
2018-08-06T03:36:19.957Z,2.67
2018-08-06T03:38:46.672Z,3.23
2018-08-06T03:41:12.633Z,3.33
2018-08-06T03:43:39.355Z,3.30
2018-08-06T03:46:06.077Z,3.70
2018-08-06T03:48:32.797Z,3.30
2018-08-06T03:50:58.774Z,3.53
2018-08-06T03:53:25.461Z,3.53
2018-08-06T03:55:51.422Z,3.50
2018-08-06T03:58:17.389Z,4.00
2018-08-06T04:00:43.381Z,3.47
2018-08-06T04:03:10.074Z,3.53
2018-08-06T04:05:36.057Z,3.77
2018-08-06T04:08:02.018Z,3.77
2018-08-06T04:10:28.017Z,3.90
2018-08-06T04:12:53.962Z,3.63
2018-08-06T04:15:19.933Z,3.30
2018-08-06T04:17:46.665Z,4.00
2018-08-06T04:20:13.366Z,3.33
2018-08-06T04:22:40.131Z,3.77
2018-08-06T04:25:06.069Z,3.70
2018-08-06T04:27:32.783Z,5.20
2018-08-06T04:29:58.713Z,4.53
2018-08-06T04:32:24.697Z,4.13
2018-08-06T04:34:50.657Z,4.37
2018-08-06T04:37:16.642Z,4.33
2018-08-06T04:39:42.584Z,4.87
2018-08-06T04:42:08.533Z,4.60
2018-08-06T04:44:35.266Z,4.63
2018-08-06T04:47:01.225Z,4.60
2018-08-06T04:49:27.216Z,4.30
2018-08-06T04:51:53.946Z,4.43
2018-08-06T04:54:19.941Z,4.17
2018-08-06T04:56:45.891Z,4.60
2018-08-06T04:59:11.830Z,4.30
2018-08-06T05:01:38.581Z,4.60
2018-08-06T05:04:05.264Z,4.30
2018-08-06T05:06:31.245Z,4.13
2018-08-06T05:08:57.216Z,4.47
2018-08-06T05:11:23.207Z,4.23
2018-08-06T05:13:49.164Z,3.93
2018-08-06T05:16:15.155Z,3.90
2018-08-06T05:18:41.092Z,4.07
2018-08-06T05:21:07.064Z,4.10
2018-08-06T05:23:33.014Z,4.10
2018-08-06T05:25:58.991Z,4.50
2018-08-06T05:28:24.954Z,3.97
2018-08-06T05:30:51.681Z,4.33
2018-08-06T05:33:18.373Z,4.30
2018-08-06T05:35:44.336Z,4.23
2018-08-06T05:38:10.317Z,4.07
2018-08-06T05:40:36.312Z,3.83
2018-08-06T05:43:02.286Z,3.60
2018-08-06T05:45:28.234Z,3.93
2018-08-06T05:47:54.209Z,4.20
2018-08-06T05:50:20.162Z,3.93
2018-08-06T05:52:46.147Z,3.67
2018-08-06T05:55:12.100Z,3.40
2018-08-06T05:57:38.071Z,3.43
2018-08-06T06:00:04.025Z,3.50
2018-08-06T06:02:29.983Z,3.50
2018-08-06T06:04:55.955Z,3.70
2018-08-06T06:07:21.903Z,3.70
2018-08-06T06:09:47.886Z,3.17
2018-08-06T06:12:13.855Z,3.27
2018-08-06T06:14:39.842Z,3.47
2018-08-06T06:17:06.530Z,3.50
2018-08-06T06:19:32.478Z,3.40
2018-08-06T06:21:59.196Z,3.23
2018-08-06T06:24:25.147Z,2.73
2018-08-06T06:26:51.859Z,2.90
2018-08-06T06:29:17.804Z,3.03
2018-08-06T06:31:44.524Z,2.93
2018-08-06T06:34:10.465Z,2.57
2018-08-06T06:36:37.349Z,3.00
2018-08-06T06:39:03.319Z,2.83
2018-08-06T06:41:29.271Z,2.37
2018-08-06T06:43:55.258Z,2.17
2018-08-06T06:46:21.208Z,2.43
2018-08-06T06:48:47.983Z,2.40
2018-08-06T06:51:13.940Z,2.10
2018-08-06T06:53:39.892Z,2.80
2018-08-06T06:56:06.595Z,2.10
2018-08-06T06:58:32.568Z,2.00
2018-08-06T07:00:59.276Z,1.97
2018-08-06T07:03:25.260Z,2.10
2018-08-06T07:05:51.217Z,1.85
2018-08-06T07:08:17.225Z,1.70
2018-08-06T07:10:43.174Z,1.50
2018-08-06T07:13:09.887Z,1.87
2018-08-06T07:15:35.871Z,1.80
2018-08-06T07:18:01.820Z,1.80
2018-08-06T07:20:27.815Z,1.87
2018-08-06T07:22:53.779Z,1.70
2018-08-06T07:25:19.762Z,1.60
2018-08-06T07:27:45.701Z,1.50
2018-08-06T07:30:11.673Z,1.45
2018-08-06T07:32:37.616Z,1.25
2018-08-06T07:35:03.577Z,1.23
2018-08-06T07:37:29.556Z,1.10
2018-08-06T07:39:56.268Z,1.20
2018-08-06T07:42:22.256Z,1.00
2018-08-06T07:44:48.950Z,1.00
2018-08-06T07:47:15.670Z,1.00
2018-08-06T07:49:41.707Z,0.90
2018-08-06T07:52:07.618Z,0.98
2018-08-06T07:54:33.567Z,1.00
2018-08-06T07:56:59.527Z,0.90
2018-08-06T07:59:25.493Z,0.95
2018-08-06T08:01:51.454Z,1.00
2018-08-06T08:04:17.426Z,1.00
2018-08-06T08:06:43.362Z,1.00
2018-08-06T08:09:09.319Z,0.90
2018-08-06T08:11:36.023Z,1.05
2018-08-06T08:14:02.004Z,0.90
2018-08-06T08:16:27.945Z,0.90
2018-08-06T08:18:53.934Z,1.00
2018-08-06T08:23:50.849Z,1.00
2018-08-06T08:26:16.813Z,1.00
2018-08-06T08:28:43.501Z,0.80
2018-08-06T08:31:09.490Z,0.88
2018-08-06T08:33:35.461Z,0.98
2018-08-06T08:36:02.204Z,0.88
2018-08-06T08:38:28.157Z,1.00
2018-08-06T08:40:54.874Z,0.90
2018-08-06T08:43:21.597Z,0.90
2018-08-06T08:45:47.602Z,0.80
2018-08-06T08:48:13.565Z,0.90
2018-08-06T08:50:40.244Z,0.82
2018-08-06T08:53:06.228Z,0.90
2018-08-06T08:55:32.930Z,1.00
2018-08-06T08:57:58.913Z,0.85
2018-08-06T09:00:26.234Z,0.90
2018-08-06T09:02:52.979Z,1.15
2018-08-06T09:05:19.696Z,0.95
2018-08-06T09:07:45.652Z,1.00
2018-08-06T09:10:12.377Z,1.10
2018-08-06T09:12:38.325Z,1.00
2018-08-06T09:15:05.036Z,1.00
2018-08-06T09:17:30.994Z,1.12
2018-08-06T09:19:57.710Z,1.08
2018-08-06T09:22:24.401Z,1.20
2018-08-06T09:24:50.405Z,1.00
2018-08-06T09:27:17.084Z,1.05
2018-08-06T09:29:43.046Z,1.00
2018-08-06T09:32:09.769Z,1.23
2018-08-06T09:34:35.718Z,0.90
2018-08-06T09:37:02.449Z,1.08
2018-08-06T09:39:29.150Z,1.20
2018-08-06T09:41:55.141Z,1.10
2018-08-06T09:44:21.098Z,1.17
2018-08-06T09:46:47.078Z,1.12
2018-08-06T09:49:13.014Z,1.20
2018-08-06T09:51:38.994Z,0.98
2018-08-06T09:54:04.937Z,1.30
2018-08-06T09:56:30.887Z,1.05
2018-08-06T09:58:56.869Z,1.00
2018-08-06T10:01:23.565Z,1.02
2018-08-06T10:03:49.551Z,1.10
2018-08-06T10:06:15.547Z,1.10
2018-08-06T10:08:41.501Z,0.90
2018-08-06T10:11:07.471Z,1.02
2018-08-06T10:13:33.462Z,0.90
2018-08-06T10:15:59.428Z,0.95
2018-08-06T10:18:25.418Z,0.98
2018-08-06T10:20:51.368Z,0.98
2018-08-06T10:23:17.364Z,1.05
2018-08-06T10:25:43.323Z,1.17
2018-08-06T10:28:09.314Z,0.77
2018-08-06T10:30:35.331Z,1.08
2018-08-06T10:33:01.239Z,0.90
2018-08-06T10:35:27.232Z,1.10
2018-08-06T10:37:53.889Z,0.90
2018-08-06T10:40:20.650Z,0.90
2018-08-06T10:42:46.501Z,0.73
2018-08-06T10:45:12.463Z,0.80
2018-08-06T10:47:38.411Z,0.73
2018-08-06T10:50:04.333Z,0.90
2018-08-06T10:52:30.277Z,0.70
2018-08-06T10:54:56.205Z,1.00
2018-08-06T10:57:22.172Z,0.80
2018-08-06T10:59:48.853Z,0.80
2018-08-06T11:02:14.835Z,0.80
2018-08-06T11:04:41.507Z,0.80
2018-08-06T11:07:07.467Z,0.83
2018-08-06T11:09:33.402Z,0.80
2018-08-06T11:11:59.360Z,0.90
2018-08-06T11:14:25.330Z,0.80
2018-08-06T11:16:51.246Z,0.73
2018-08-06T11:19:17.226Z,0.90
2018-08-06T11:21:43.904Z,1.00
2018-08-06T11:24:09.847Z,0.90
2018-08-06T11:26:35.769Z,1.10
2018-08-06T11:29:01.721Z,0.73
2018-08-06T11:31:28.379Z,0.87
2018-08-06T11:33:54.301Z,0.87
2018-08-06T11:36:20.263Z,0.70
2018-08-06T11:38:46.183Z,0.90
2018-08-06T11:41:12.158Z,0.90
2018-08-06T11:43:38.071Z,0.87
2018-08-06T11:46:04.743Z,0.77
2018-08-06T11:48:30.692Z,0.70
2018-08-06T11:50:56.661Z,0.80
2018-08-06T11:53:23.344Z,1.00
2018-08-06T11:55:49.278Z,0.80
2018-08-06T11:58:15.263Z,0.87
2018-08-06T12:00:41.198Z,0.87
2018-08-06T12:03:07.181Z,0.70
2018-08-06T12:05:33.135Z,0.80
2018-08-06T12:07:59.096Z,0.87
2018-08-06T12:10:25.029Z,0.83
2018-08-06T12:12:51.006Z,0.97
2018-08-06T12:15:16.946Z,0.90
2018-08-06T12:17:42.898Z,0.80
2018-08-06T12:20:08.841Z,1.00
2018-08-06T12:22:35.511Z,1.00
2018-08-06T12:25:01.446Z,0.90
2018-08-06T12:27:27.408Z,0.80
2018-08-06T12:29:54.124Z,0.87
2018-08-06T12:32:20.055Z,1.00
2018-08-06T12:34:46.049Z,0.97
2018-08-06T12:37:11.997Z,1.00
2018-08-06T12:39:37.944Z,0.73
2018-08-06T12:42:04.670Z,0.67
2018-08-06T12:44:30.604Z,0.80
2018-08-06T12:46:57.293Z,0.90
2018-08-06T12:49:23.251Z,0.90
2018-08-06T12:51:49.295Z,0.80
2018-08-06T12:54:15.163Z,0.90
2018-08-06T12:56:41.117Z,1.07
2018-08-06T12:59:07.794Z,0.80
2018-08-06T13:01:33.760Z,0.90
2018-08-06T13:03:59.681Z,0.80
2018-08-06T13:06:25.609Z,0.80
2018-08-06T13:08:51.566Z,0.90
2018-08-06T13:11:18.237Z,0.80
2018-08-06T13:13:44.184Z,0.90
2018-08-06T13:16:10.141Z,0.90
2018-08-06T13:18:36.147Z,0.80
2018-08-06T13:21:02.070Z,0.80
2018-08-06T13:23:28.061Z,0.80
2018-08-06T13:25:54.021Z,0.90
2018-08-06T13:28:19.936Z,0.73
2018-08-06T13:30:45.901Z,0.83
2018-08-06T13:33:11.814Z,0.90
2018-08-06T13:35:38.510Z,0.97
2018-08-06T13:38:04.458Z,1.00
2018-08-06T13:40:31.165Z,0.80
2018-08-06T13:42:57.063Z,0.70
2018-08-06T13:45:23.006Z,0.77
2018-08-06T13:47:48.935Z,0.80
2018-08-06T13:50:14.849Z,0.80
2018-08-06T13:52:40.804Z,0.97
2018-08-06T13:55:06.736Z,0.87
2018-08-06T13:57:33.450Z,1.00
2018-08-06T13:59:59.398Z,0.80
2018-08-06T14:02:26.101Z,1.13
2018-08-06T14:04:52.041Z,0.80
2018-08-06T14:07:17.973Z,0.80
2018-08-06T14:09:43.955Z,0.90
2018-08-06T14:12:09.887Z,1.10
2018-08-06T14:14:35.830Z,1.00
2018-08-06T14:17:01.743Z,0.90
2018-08-06T14:19:27.718Z,0.80
2018-08-06T14:21:53.686Z,1.00
2018-08-06T14:24:19.651Z,0.93
2018-08-06T14:26:46.320Z,0.90
2018-08-06T14:29:12.278Z,0.80
2018-08-06T14:31:38.214Z,0.90
2018-08-06T14:34:04.961Z,0.90
2018-08-06T14:36:30.958Z,0.97
2018-08-06T14:38:56.928Z,0.80
2018-08-06T14:41:22.862Z,0.90
2018-08-06T14:43:48.797Z,0.90
2018-08-06T14:46:14.766Z,1.10
2018-08-06T14:48:40.697Z,0.80
2018-08-06T14:51:07.396Z,1.03
2018-08-06T14:53:33.306Z,0.90
2018-08-06T14:55:59.242Z,0.70
2018-08-06T14:58:25.168Z,0.83
2018-08-06T15:00:51.139Z,0.90
2018-08-06T15:03:17.814Z,0.80
2018-08-06T15:05:43.778Z,1.00
2018-08-06T15:08:09.701Z,1.00
2018-08-06T15:10:35.660Z,0.90
2018-08-06T15:13:01.584Z,0.93
2018-08-06T15:15:27.592Z,0.87
2018-08-06T15:17:53.519Z,0.90
2018-08-06T15:20:20.189Z,0.90
2018-08-06T15:22:46.142Z,0.80
2018-08-06T15:25:12.077Z,0.80
2018-08-06T15:27:38.020Z,0.90
2018-08-06T15:30:04.742Z,0.80
2018-08-06T15:32:30.685Z,0.80
2018-08-06T15:34:56.643Z,0.93
2018-08-06T15:37:22.591Z,1.00
2018-08-06T15:39:48.551Z,0.80
2018-08-06T15:42:15.206Z,0.97
2018-08-06T15:44:41.199Z,1.00
2018-08-06T15:47:07.863Z,0.93
2018-08-06T15:49:33.805Z,1.00
2018-08-06T15:51:59.753Z,0.90
2018-08-06T15:54:25.698Z,1.20
2018-08-06T15:56:51.636Z,1.00
2018-08-06T15:59:18.325Z,1.00
2018-08-06T16:01:44.298Z,1.03
2018-08-06T16:04:10.958Z,1.00
2018-08-06T16:06:36.889Z,1.07
2018-08-06T16:09:02.862Z,1.00
2018-08-06T16:11:28.777Z,0.70
2018-08-06T16:13:54.749Z,1.00
2018-08-06T16:16:20.679Z,1.00
2018-08-06T16:18:46.634Z,0.97
2018-08-06T16:21:12.564Z,0.90
2018-08-06T16:23:38.545Z,1.00
2018-08-06T16:26:04.476Z,1.20
2018-08-06T16:28:30.443Z,1.50
2018-08-06T16:30:56.388Z,1.50
2018-08-06T16:33:23.054Z,1.10
2018-08-06T16:35:49.018Z,1.20
2018-08-06T16:38:14.943Z,1.50
2018-08-06T16:40:40.902Z,1.30
2018-08-06T16:43:06.838Z,1.10
2018-08-06T16:45:32.788Z,1.10
2018-08-06T16:47:58.744Z,1.00
2018-08-06T16:50:24.659Z,0.90
2018-08-06T16:52:50.796Z,1.13
2018-08-06T16:55:16.546Z,1.17
2018-08-06T16:57:43.240Z,1.10
2018-08-06T17:00:09.167Z,1.00
2018-08-06T17:02:35.139Z,0.87
2018-08-06T17:05:01.071Z,0.90
2018-08-06T17:07:27.030Z,1.00
2018-08-06T17:09:52.964Z,1.00
2018-08-06T17:12:19.642Z,1.00
2018-08-06T17:14:45.591Z,0.90
2018-08-06T17:17:11.515Z,0.90
2018-08-06T17:19:37.456Z,0.90
2018-08-06T17:22:03.388Z,0.90
2018-08-06T17:24:30.079Z,1.03
2018-08-06T17:26:56.022Z,0.90
2018-08-06T17:29:22.039Z,1.00
2018-08-06T17:31:47.985Z,1.00
2018-08-06T17:34:13.942Z,0.87
2018-08-06T17:36:40.610Z,1.00
2018-08-06T17:39:06.602Z,0.70
2018-08-06T17:41:33.281Z,1.20
2018-08-06T17:43:59.210Z,1.10
2018-08-06T17:46:25.163Z,1.00
2018-08-06T17:48:51.092Z,1.00
2018-08-06T17:51:17.830Z,1.10
2018-08-06T17:53:44.509Z,1.10
2018-08-06T17:56:10.435Z,0.90
2018-08-06T17:58:36.391Z,1.00
2018-08-06T18:01:02.324Z,1.17
2018-08-06T18:03:28.274Z,1.03
2018-08-06T18:05:54.927Z,1.00
2018-08-06T18:08:20.878Z,1.50
2018-08-06T18:10:46.804Z,1.60
2018-08-06T18:13:12.762Z,1.10
2018-08-06T18:15:39.455Z,0.87
2018-08-06T18:18:05.367Z,1.00
2018-08-06T18:20:31.385Z,1.30
2018-08-06T18:22:57.325Z,0.80
2018-08-06T18:25:23.270Z,0.90
2018-08-06T18:27:49.239Z,1.00
2018-08-06T18:30:15.289Z,1.00
2018-08-06T18:32:41.230Z,1.00
2018-08-06T18:35:07.163Z,1.20
2018-08-06T18:37:33.896Z,1.23
2018-08-06T18:39:59.840Z,1.27
2018-08-06T18:42:25.808Z,1.27
2018-08-06T18:44:51.734Z,1.20
2018-08-06T18:47:18.238Z,1.20
2018-08-06T18:49:44.898Z,1.03
2018-08-06T18:52:10.935Z,1.20
2018-08-06T18:54:36.888Z,1.60
2018-08-06T18:57:02.817Z,1.50
2018-08-06T18:59:28.789Z,1.30
2018-08-06T19:01:54.726Z,1.17
2018-08-06T19:04:20.691Z,1.40
2018-08-06T19:06:46.613Z,1.17
2018-08-06T19:09:12.568Z,1.37
2018-08-06T19:11:39.235Z,1.33
2018-08-06T19:14:05.198Z,1.10
2018-08-06T19:16:31.873Z,1.40
2018-08-06T19:18:58.580Z,1.50
2018-08-06T19:21:24.503Z,1.40
2018-08-06T19:23:50.425Z,1.60
2018-08-06T19:26:16.462Z,1.40
2018-08-06T19:28:42.479Z,1.50
2018-08-06T19:31:09.181Z,1.40
2018-08-06T19:33:35.128Z,1.20
2018-08-06T19:36:01.074Z,1.30
2018-08-06T19:38:27.730Z,1.33
2018-08-06T19:40:54.429Z,1.43
2018-08-06T19:43:20.342Z,1.30
2018-08-06T19:45:46.281Z,1.47
2018-08-06T19:48:12.236Z,1.40
2018-08-06T19:50:38.889Z,1.40
2018-08-06T19:53:05.378Z,1.20
2018-08-06T19:55:31.732Z,1.63
2018-08-06T19:57:58.445Z,1.20
2018-08-06T20:00:25.141Z,1.50
2018-08-06T20:02:51.072Z,1.50
2018-08-06T20:05:17.000Z,1.27
2018-08-06T20:07:42.961Z,1.50
2018-08-06T20:10:08.891Z,1.30
2018-08-06T20:12:35.660Z,0.93
2018-08-06T20:15:01.591Z,1.57
2018-08-06T20:17:27.522Z,1.40
2018-08-06T20:19:53.441Z,1.30
2018-08-06T20:22:19.416Z,1.47
2018-08-06T20:24:46.091Z,1.20
2018-08-06T20:27:12.062Z,1.50
2018-08-06T20:29:37.992Z,1.67
2018-08-06T20:32:03.915Z,1.70
2018-08-06T20:34:29.860Z,1.50
2018-08-06T20:36:55.815Z,1.40
2018-08-06T20:39:21.770Z,1.40
2018-08-06T20:41:47.686Z,1.37
2018-08-06T20:44:13.654Z,1.73
2018-08-06T20:46:40.333Z,1.20
2018-08-06T20:49:06.319Z,1.40
2018-08-06T20:51:32.254Z,1.43
2018-08-06T20:53:58.193Z,1.60
2018-08-06T20:56:24.142Z,1.40
2018-08-06T20:58:50.077Z,1.20
2018-08-06T21:01:16.070Z,1.47
2018-08-06T21:03:41.981Z,1.50
2018-08-06T21:06:07.952Z,1.40
2018-08-06T21:08:34.637Z,1.10
2018-08-06T21:11:00.557Z,1.40
2018-08-06T21:13:26.498Z,1.33
2018-08-06T21:15:52.444Z,1.40
2018-08-06T21:18:18.426Z,1.47
2018-08-06T21:20:44.352Z,1.50
2018-08-06T21:23:10.308Z,1.40
2018-08-06T21:25:36.226Z,1.50
2018-08-06T21:28:02.181Z,1.03
2018-08-06T21:30:28.856Z,1.30
2018-08-06T21:32:54.841Z,1.30
2018-08-06T21:35:21.495Z,1.63
2018-08-06T21:37:47.465Z,1.40
2018-08-06T21:40:13.403Z,1.40
2018-08-06T21:42:40.110Z,1.53
2018-08-06T21:45:06.179Z,1.60
2018-08-06T21:47:32.061Z,1.53
2018-08-06T21:49:58.018Z,1.30
2018-08-06T21:52:23.965Z,1.23
2018-08-06T21:54:50.861Z,1.43
2018-08-06T21:57:16.869Z,1.37
2018-08-06T21:59:42.828Z,1.60
2018-08-06T22:02:08.775Z,1.50
2018-08-06T22:04:34.778Z,1.40
2018-08-06T22:07:00.969Z,1.40
2018-08-06T22:09:27.720Z,1.40
2018-08-06T22:11:53.676Z,1.40
2018-08-06T22:14:19.601Z,1.50
2018-08-06T22:16:45.547Z,1.20
2018-08-06T22:19:12.211Z,1.40
2018-08-06T22:21:38.178Z,1.30
2018-08-06T22:24:04.855Z,1.30
2018-08-06T22:26:30.785Z,1.30
2018-08-06T22:28:56.749Z,1.40
2018-08-06T22:31:22.689Z,1.10
2018-08-06T22:33:48.718Z,1.20
2018-08-06T22:36:14.631Z,1.50
2018-08-06T22:38:40.595Z,1.40
2018-08-06T22:41:06.547Z,1.43
2018-08-06T22:43:32.515Z,1.57
2018-08-06T22:45:58.476Z,1.50
2018-08-06T22:48:24.405Z,1.33
2018-08-06T22:50:50.352Z,1.70
2018-08-06T22:53:16.277Z,1.57
2018-08-06T22:55:42.257Z,1.77
2018-08-06T22:58:08.223Z,1.60
2018-08-06T23:00:35.510Z,1.70
2018-08-06T23:03:02.185Z,1.60
2018-08-06T23:05:28.115Z,1.60
2018-08-06T23:07:54.072Z,1.60
2018-08-06T23:10:20.756Z,1.27
2018-08-06T23:12:46.723Z,1.50
2018-08-06T23:15:12.657Z,1.60
2018-08-06T23:17:38.596Z,1.50
2018-08-06T23:20:05.269Z,1.80
2018-08-06T23:22:31.190Z,1.70
2018-08-06T23:24:57.138Z,1.53
2018-08-06T23:27:23.079Z,1.80
2018-08-06T23:29:49.797Z,1.70
2018-08-06T23:32:15.737Z,2.03
2018-08-06T23:34:42.429Z,1.77
2018-08-06T23:37:08.362Z,1.60
2018-08-06T23:39:34.316Z,1.90
2018-08-06T23:42:00.248Z,1.60
2018-08-06T23:44:26.180Z,1.60
2018-08-06T23:46:52.889Z,1.90
2018-08-06T23:49:18.815Z,1.50
2018-08-06T23:51:44.746Z,1.77
2018-08-06T23:54:10.659Z,1.40
2018-08-06T23:56:36.601Z,1.97
2018-08-06T23:59:02.520Z,1.70
